Last 48 Hours

Top Stn/Summit - 11,053ft

15 Minute Data | America/Los_Angeles
as of 5/3/26 12:05 PM PDT
Date & Time Temp (°F) WindChill (°F) RH (%) Dew Pt (°F) Wet Bulb (°F) Wind Dir (°) Wind Spd (mph) Wind Gust (mph) Wind Gst Dir (°) Daily Min Temp (°F) Daily Max Temp (°F) Daily Max Wind (mph)
5/3/26 - 1200 31.6 18.2 76 24.9 29.2 SW | 216 21.2 29.1 SW | 215 31.2 37.2 30.8
5/3/26 - 1145 31.5 17.8 78 25.4 29.2 SW | 218 21.4 29.7 SW | 215 31.2 37.2 30.8
5/3/26 - 1130 32.3 19.1 76 25.5 29.8 SW | 224 19.4 30.8 SW | 217 31.4 37.2 30.8
5/3/26 - 1115 35.4 24.2 69 26.2 32.0 SSW | 213 16.1 25.2 SSW | 205 32.0 37.2 25.2
5/3/26 - 1100 35.3 25.5 71 26.9 32.1 SSW | 208 11.2 20.5 SW | 219 32.0 36.9 21.6
5/3/26 - 1045 34.2 26.9 74 26.6 31.3 WNW | 282 3.9 14.1 SW | 223 32.0 36.6 21.6
5/3/26 - 1030 34.6 28.8 74 27.1 31.8 NNE | 14 4.3 9.3 NNE | 24 32.0 36.6 21.6
5/3/26 - 1015 33.7 28.2 73 25.9 30.8 NNE | 19 3.4 8.9 NNE | 16 32.0 35.2 21.6
5/3/26 - 1000 32.9 24.7 73 25.4 30.2 NNE | 20 8.1 12.8 NNE | 28 32.0 35.2 21.6
5/3/26 - 0945 32.6 24.4 74 25.2 30.0 NNE | 23 7.7 12.8 NNE | 14 32.0 35.2 21.6
5/3/26 - 0930 32.5 25.5 73 24.7 29.6 NE | 36 6.0 9.6 NNE | 21 32.0 35.2 21.6
5/3/26 - 0915 33.0 24.1 72 25.0 30.1 NE | 39 9.6 13.9 NE | 47 32.1 35.2 21.6
5/3/26 - 0900 33.6 24.8 66 23.5 30.0 ENE | 65 9.0 14.5 ENE | 64 32.1 35.2 21.6
5/3/26 - 0845 33.0 23.6 68 23.5 29.7 ENE | 58 10.5 15.9 NE | 51 32.1 35.2 21.6
5/3/26 - 0830 33.2 22.8 65 22.6 29.5 ENE | 61 11.4 20.0 ENE | 60 32.1 35.2 21.6
5/3/26 - 0815 32.9 23.4 66 22.7 29.4 ENE | 61 9.8 16.8 E | 80 32.1 35.2 21.6
5/3/26 - 0800 34.2 24.6 55 19.8 29.4 ENE | 74 11.3 17.4 E | 82 32.1 35.2 21.6
5/3/26 - 0745 33.8 23.1 59 20.7 29.3 E | 83 12.8 21.6 E | 90 32.1 35.2 21.6
5/3/26 - 0730 33.0 24.0 65 22.6 29.3 ENE | 68 9.2 14.9 ENE | 62 32.1 35.0 21.0
5/3/26 - 0715 33.6 25.6 66 23.3 29.9 ENE | 63 8.3 12.3 ENE | 64 32.1 35.0 21.0
5/3/26 - 0700 34.4 26.4 61 22.4 30.2 ENE | 77 8.2 12.8 E | 86 32.1 35.0 21.0
5/3/26 - 0645 33.3 27.2 70 24.5 30.1 E | 85 4.5 8.8 E | 84 32.1 34.9 21.0
5/3/26 - 0630 33.2 23.5 58 20.0 28.8 E | 95 9.0 18.8 ESE | 112 32.1 34.9 21.0
5/3/26 - 0615 33.1 23.7 55 18.7 28.4 E | 97 11.0 15.4 E | 93 32.1 34.9 21.0
5/3/26 - 0600 33.6 26.9 56 19.6 28.9 E | 84 5.2 10.3 E | 84 32.1 34.9 21.0
5/3/26 - 0545 34.3 - 58 21.0 29.8 E | 82 1.5 3.9 E | 83 32.1 34.9 21.0
5/3/26 - 0530 34.4 - 60 22.0 30.1 E | 81 0.6 2.2 E | 81 32.1 34.9 21.0
5/3/26 - 0515 34.3 - 60 21.7 30.0 E | 79 0.5 3.2 E | 79 32.1 34.9 21.0
5/3/26 - 0500 33.9 - 60 21.4 29.6 ENE | 78 0.3 1.1 ENE | 78 32.1 34.9 21.0
5/3/26 - 0445 33.8 - 60 21.2 29.4 ENE | 78 0.3 1.7 ENE | 78 32.1 34.9 21.0
5/3/26 - 0430 33.6 30.4 60 21.4 29.4 E | 79 0.9 6.3 ENE | 78 32.1 34.9 21.0
5/3/26 - 0415 33.3 - 67 23.4 29.8 E | 79 1.9 3.7 E | 79 32.1 34.9 21.0
5/3/26 - 0400 33.3 27.0 67 23.5 29.8 E | 80 5.3 9.1 E | 79 32.1 34.9 21.0
5/3/26 - 0345 33.9 29.2 64 22.9 30.0 E | 84 2.9 7.2 E | 83 32.1 34.9 21.0
5/3/26 - 0330 33.7 28.9 64 22.9 29.9 E | 84 4.2 6.3 E | 84 32.1 34.9 21.0
5/3/26 - 0315 34.0 27.9 66 24.0 30.4 E | 98 5.3 8.7 ESE | 111 32.1 34.9 21.0
5/3/26 - 0300 34.3 27.0 71 25.9 31.2 SSE | 166 7.1 11.0 SSE | 168 32.1 34.9 21.0
5/3/26 - 0245 34.6 25.1 71 26.3 31.5 S | 178 11.4 17.5 S | 173 32.1 34.9 21.0
5/3/26 - 0230 34.0 23.1 73 26.3 31.1 S | 181 15.1 21.0 S | 190 32.1 34.2 21.0
5/3/26 - 0215 33.5 22.6 75 26.4 30.9 S | 189 15.2 20.4 SSW | 196 32.1 33.8 20.4
5/3/26 - 0200 32.9 22.2 79 27.2 30.7 SSW | 193 13.4 19.6 S | 176 32.1 33.8 19.6
5/3/26 - 0145 32.4 23.2 82 27.3 30.4 SSW | 211 9.9 14.0 SSW | 213 32.1 32.8 18.0
5/3/26 - 0130 32.4 22.0 82 27.5 30.5 SSW | 209 12.2 18.0 SSW | 209 32.1 32.8 18.0
5/3/26 - 0115 32.4 22.2 82 27.6 30.6 SSW | 207 12.6 17.1 SSW | 204 32.2 32.8 17.1
5/3/26 - 0100 32.5 22.8 83 27.8 30.7 SSW | 210 11.4 15.4 SSW | 210 30.9 39.0 37.4
5/3/26 - 0045 32.8 22.8 83 28.1 31.0 SW | 215 12.0 17.0 SSW | 201 30.9 39.0 37.4
5/3/26 - 0030 32.2 21.5 83 27.8 30.5 SW | 215 13.3 18.8 SW | 216 30.9 39.0 37.4
5/3/26 - 0015 32.2 20.4 84 28.0 30.6 SSW | 210 16.6 22.6 SSW | 204 30.9 39.0 37.4
5/3/26 - 0000 32.4 20.2 86 28.8 31.0 SW | 217 18.0 24.2 SW | 218 30.9 39.0 37.4
5/2/26 - 2345 32.5 21.0 87 29.1 31.2 SW | 220 16.0 21.9 SW | 218 30.9 39.0 37.4
5/2/26 - 2330 32.2 20.6 87 28.9 30.9 SW | 220 16.5 20.8 SW | 223 30.9 39.0 37.4
5/2/26 - 2315 32.3 20.7 87 28.8 30.9 SW | 218 16.1 21.6 SW | 219 30.9 39.0 37.4
5/2/26 - 2300 32.6 20.8 86 28.9 31.2 SW | 220 17.5 22.8 SW | 220 30.9 39.0 37.4
5/2/26 - 2245 32.9 21.9 85 28.8 31.3 SSW | 211 15.0 19.5 SSW | 211 30.9 39.0 37.4
5/2/26 - 2230 32.9 21.4 83 28.4 31.2 SW | 216 16.6 21.6 SSW | 213 30.9 39.0 37.4
5/2/26 - 2215 34.5 24.6 80 28.9 32.3 SSW | 209 13.2 18.1 SW | 214 30.9 39.0 37.4
5/2/26 - 2200 35.0 26.0 80 29.6 32.9 SSW | 200 11.3 15.6 SSW | 201 30.9 39.0 37.4
5/2/26 - 2145 34.7 26.6 81 29.6 32.8 SSW | 201 9.5 12.6 SSW | 204 30.9 39.0 37.4
5/2/26 - 2130 34.4 26.5 82 29.6 32.5 SSW | 203 9.2 11.8 SSW | 203 30.9 39.0 37.4
5/2/26 - 2115 34.2 25.3 83 29.6 32.4 SSW | 202 10.5 14.8 SSW | 200 30.9 39.0 37.4
5/2/26 - 2100 34.9 26.1 82 30.1 33.0 SSW | 200 10.6 15.0 SSW | 199 30.9 39.0 37.4
5/2/26 - 2045 33.5 24.2 88 30.2 32.2 SSW | 206 10.8 15.7 SSW | 209 30.9 39.0 37.4
5/2/26 - 2030 32.8 22.4 90 30.3 31.8 SSW | 212 13.6 17.6 SSW | 211 30.9 39.0 37.4
5/2/26 - 2015 32.4 21.3 92 30.5 31.6 SW | 215 14.9 20.0 SW | 214 30.9 39.0 37.4
5/2/26 - 2000 32.5 20.8 93 30.6 31.7 SW | 215 17.0 22.1 SW | 216 30.9 39.0 37.4
5/2/26 - 1945 33.1 21.2 92 31.0 32.2 SW | 220 17.8 23.2 SSW | 212 30.9 39.0 37.4
5/2/26 - 1930 33.1 20.9 92 31.1 32.3 SW | 222 18.5 25.6 SW | 218 30.9 39.0 37.4
5/2/26 - 1915 33.7 21.1 91 31.2 32.7 SW | 224 20.0 28.4 SW | 215 30.9 39.0 37.4
5/2/26 - 1900 33.9 21.2 90 31.3 32.8 SW | 227 20.7 28.9 SW | 222 30.9 39.0 37.4
5/2/26 - 1845 34.0 21.1 90 31.3 32.9 SW | 224 21.9 30.5 SW | 229 30.9 39.0 37.4
5/2/26 - 1830 34.3 21.5 89 31.3 33.1 SW | 224 22.0 30.4 SW | 217 30.9 39.0 37.4
5/2/26 - 1815 34.4 21.7 88 31.2 33.1 SW | 226 21.5 29.6 SW | 216 30.9 39.0 37.4
5/2/26 - 1800 34.6 22.3 86 30.8 33.1 SW | 225 20.8 28.0 SW | 222 30.9 39.0 37.4
5/2/26 - 1745 34.9 22.0 85 30.8 33.3 SW | 226 21.9 34.3 SW | 226 30.9 39.0 37.4
5/2/26 - 1730 34.6 21.3 86 31.0 33.2 SW | 224 24.9 33.8 SW | 220 30.9 39.0 37.4
5/2/26 - 1715 34.7 22.0 86 30.9 33.2 SW | 224 22.9 30.0 SW | 223 30.9 39.0 37.4
5/2/26 - 1700 34.8 22.2 86 30.9 33.2 SW | 225 21.8 29.9 SW | 215 30.9 39.0 37.4
5/2/26 - 1645 35.0 22.4 84 30.8 33.4 SW | 224 23.0 30.3 SW | 235 30.9 39.0 37.4
5/2/26 - 1630 34.6 22.2 85 30.7 33.1 SW | 229 21.4 28.2 SW | 214 30.9 39.0 37.4
5/2/26 - 1615 34.4 21.4 85 30.5 32.8 SW | 224 22.9 31.9 SW | 224 30.9 39.0 37.4
5/2/26 - 1600 34.0 21.2 87 30.6 32.7 SW | 227 22.5 30.1 SW | 229 30.9 39.0 37.4
5/2/26 - 1545 34.8 21.6 84 30.5 33.1 SW | 226 24.6 33.6 SW | 226 30.9 39.0 37.4
5/2/26 - 1530 35.2 22.3 83 30.6 33.4 SW | 224 24.4 31.9 SW | 221 30.9 39.0 37.4
5/2/26 - 1515 35.8 23.5 79 29.9 33.5 SW | 231 21.6 31.5 SW | 223 30.9 39.0 37.4
5/2/26 - 1500 36.4 24.0 75 29.2 33.6 SW | 227 23.3 32.8 SW | 222 30.9 39.0 37.4
5/2/26 - 1445 36.7 24.7 72 28.6 33.6 SW | 228 22.1 31.0 WSW | 237 30.9 39.0 37.4
5/2/26 - 1430 37.9 26.4 68 28.2 34.1 SW | 225 20.1 30.8 SW | 222 30.9 39.0 37.4
5/2/26 - 1415 38.4 27.2 65 27.8 34.3 SW | 233 18.0 33.3 SW | 215 30.9 39.0 37.4
5/2/26 - 1400 38.5 27.8 64 27.5 34.2 SW | 230 18.2 28.1 SW | 214 30.9 39.0 37.4
5/2/26 - 1345 38.0 27.0 65 27.4 34.0 SW | 223 17.1 30.0 WSW | 240 30.9 38.7 37.4
5/2/26 - 1330 37.4 26.9 66 27.0 33.5 SW | 231 14.1 27.2 SW | 231 30.9 38.7 37.4
5/2/26 - 1315 38.0 27.6 64 26.8 33.7 SW | 227 17.5 24.2 SW | 223 30.9 38.7 37.4
5/2/26 - 1300 38.2 27.8 63 26.9 33.9 SW | 231 15.1 27.3 SW | 233 30.9 38.7 37.4
5/2/26 - 1245 37.2 26.5 65 26.7 33.2 SW | 233 16.5 26.4 WNW | 284 30.9 37.8 37.4
5/2/26 - 1230 37.3 26.5 65 26.4 33.2 SW | 231 16.5 27.1 W | 260 30.9 37.8 37.4
5/2/26 - 1215 37.2 26.8 65 26.5 33.1 WSW | 238 13.8 26.3 SW | 223 30.9 37.8 37.4
5/2/26 - 1200 36.9 25.4 66 26.4 33.0 SW | 222 19.5 29.1 SW | 228 30.9 37.8 37.4
5/2/26 - 1145 37.2 25.8 64 26.3 33.1 SW | 219 17.6 30.5 SW | 227 30.9 37.8 37.4
5/2/26 - 1130 37.5 26.2 64 26.3 33.3 SW | 217 18.8 29.4 SW | 228 30.9 37.8 37.4
5/2/26 - 1115 36.7 25.2 66 26.6 32.9 SW | 221 19.1 28.4 SW | 216 30.9 37.1 37.4
5/2/26 - 1100 36.6 25.4 67 26.7 32.9 SW | 216 17.6 27.2 SSW | 196 30.9 37.0 37.4
5/2/26 - 1045 35.7 24.8 69 26.6 32.3 SW | 219 17.0 23.6 SW | 219 30.9 36.2 37.4
5/2/26 - 1030 35.6 23.4 70 26.7 32.2 SW | 220 20.3 29.7 SW | 223 30.9 35.8 37.4
5/2/26 - 1015 35.5 23.7 70 26.5 32.1 SW | 220 19.7 26.8 SW | 219 30.9 35.8 37.4
5/2/26 - 1000 35.1 22.6 71 26.5 31.9 SW | 220 22.1 29.5 SSW | 212 30.9 35.5 37.4
5/2/26 - 0945 34.9 22.3 70 26.3 31.7 SW | 218 21.6 31.3 SSW | 211 30.9 35.2 37.4
5/2/26 - 0930 34.8 22.0 71 26.3 31.6 SW | 215 22.0 31.5 SW | 224 30.9 35.2 37.4
5/2/26 - 0915 35.0 22.4 71 26.5 31.8 SW | 217 21.9 30.5 SW | 230 30.9 35.2 37.4
5/2/26 - 0900 34.5 21.4 72 26.6 31.6 SW | 214 23.8 33.2 SSW | 208 30.9 35.2 37.4
5/2/26 - 0845 34.5 21.4 72 26.6 31.5 SSW | 209 23.0 31.6 SW | 221 30.9 35.2 37.4
5/2/26 - 0830 34.2 20.9 74 26.8 31.4 SSW | 205 23.1 33.1 SSW | 199 30.9 35.2 37.4
5/2/26 - 0815 33.7 21.0 76 26.8 31.1 SSW | 205 20.9 28.2 SSW | 207 30.9 35.2 37.4
5/2/26 - 0800 33.6 20.3 75 26.7 31.0 SSW | 204 22.5 32.6 SSW | 213 30.9 35.2 37.4
5/2/26 - 0745 33.8 20.8 75 26.8 31.2 SSW | 206 22.5 29.6 SSW | 197 30.9 35.2 37.4
5/2/26 - 0730 32.9 19.2 78 26.6 30.5 SSW | 204 23.0 31.7 SSW | 194 30.9 35.2 37.4
5/2/26 - 0715 32.5 18.0 78 26.4 30.2 SSW | 200 27.3 36.1 SSW | 197 30.9 35.2 37.4
5/2/26 - 0700 32.9 19.0 79 27.0 30.6 SSW | 199 24.3 33.5 SSW | 198 30.9 35.2 37.4
5/2/26 - 0645 32.3 18.6 80 27.0 30.3 SSW | 204 23.2 32.0 SSW | 205 30.9 35.2 37.4
5/2/26 - 0630 32.1 17.8 80 26.7 30.1 SSW | 196 25.3 34.4 S | 183 30.9 35.2 37.4
5/2/26 - 0615 32.0 17.6 81 26.7 30.0 SSW | 195 25.4 34.2 SSW | 192 30.9 35.2 37.4
5/2/26 - 0600 32.0 18.1 80 26.6 30.0 SSW | 196 24.0 30.8 SSW | 195 30.9 35.2 37.4
5/2/26 - 0545 32.3 18.1 77 26.0 29.9 SSW | 193 24.7 34.2 SSW | 207 30.9 35.2 37.4
5/2/26 - 0530 32.6 18.6 75 25.6 30.0 SSW | 192 25.2 33.0 S | 184 30.9 35.2 37.4
5/2/26 - 0515 32.9 18.5 75 25.7 30.2 S | 190 27.5 35.3 SSW | 196 30.9 35.2 37.4
5/2/26 - 0500 33.2 18.7 74 25.8 30.5 S | 186 28.8 37.4 S | 176 30.9 35.2 37.4
5/2/26 - 0445 33.4 19.1 74 26.0 30.7 S | 182 28.4 36.2 S | 180 30.9 35.2 36.2
5/2/26 - 0430 32.6 18.5 81 27.4 30.6 S | 180 26.2 33.4 S | 174 30.9 35.2 33.4
5/2/26 - 0415 31.5 17.7 94 30.1 30.8 SSW | 193 22.1 30.0 S | 170 30.9 35.2 30.0
5/2/26 - 0400 31.2 17.8 96 30.2 30.8 SSW | 204 21.6 27.0 SSW | 208 30.9 35.2 28.2
5/2/26 - 0345 31.0 17.6 95 29.7 30.4 SSW | 207 21.4 26.6 SSW | 208 30.9 35.2 28.2
5/2/26 - 0330 31.1 17.9 98 30.5 30.8 SSW | 207 20.5 26.1 SSW | 207 31.0 35.2 28.2
5/2/26 - 0315 31.4 18.8 99 31.2 31.2 SSW | 208 18.9 24.1 SSW | 207 31.2 35.2 28.2
5/2/26 - 0300 31.9 19.8 97 31.2 31.6 SSW | 209 17.8 22.2 SSW | 211 31.7 35.2 28.2
5/2/26 - 0245 32.4 20.8 94 30.9 31.8 SSW | 208 17.0 21.2 SSW | 211 32.0 35.2 28.2
5/2/26 - 0230 32.5 20.9 92 30.5 31.7 SSW | 202 17.1 21.6 SSW | 200 32.2 35.2 28.2
5/2/26 - 0215 33.3 21.5 90 30.6 32.2 SSW | 197 18.0 23.4 SSW | 192 32.9 35.2 28.2
5/2/26 - 0200 33.7 21.7 89 30.8 32.5 SSW | 193 19.0 25.0 SSW | 194 33.2 35.2 28.2
5/2/26 - 0145 33.4 21.1 89 30.6 32.3 SSW | 196 19.5 26.8 SSW | 200 33.2 35.2 28.2
5/2/26 - 0130 33.6 21.0 88 30.5 32.4 SSW | 198 20.7 28.2 SSW | 193 33.4 35.2 28.2
5/2/26 - 0115 34.7 23.0 86 30.8 33.2 SSW | 192 19.4 25.4 SSW | 196 34.1 35.2 25.4
5/2/26 - 0100 34.2 22.5 87 30.7 32.8 S | 189 18.7 24.1 SSW | 194 28.6 46.1 34.6
5/2/26 - 0045 33.3 21.0 91 31.0 32.4 SSW | 198 19.4 25.9 SSW | 196 28.6 46.1 34.6
5/2/26 - 0030 33.6 21.9 94 32.0 32.9 SSW | 199 17.8 22.8 SSW | 198 28.6 46.1 34.6
5/2/26 - 0015 33.3 21.4 93 31.5 32.5 SSW | 207 17.9 23.8 SSW | 203 28.6 46.1 34.6
5/2/26 - 0000 33.5 22.6 93 31.6 32.8 SSW | 209 15.6 19.9 SSW | 209 28.6 46.1 34.6
5/1/26 - 2345 34.0 23.4 93 32.1 33.2 SSW | 209 15.6 19.1 SSW | 208 28.6 46.1 34.6
5/1/26 - 2330 34.1 23.5 100 34.0 34.0 SW | 214 14.7 19.8 SW | 217 28.6 46.1 34.6
5/1/26 - 2315 33.9 23.1 100 33.9 33.9 SSW | 213 15.8 19.9 SSW | 213 28.6 46.1 34.6
5/1/26 - 2300 34.5 24.0 100 34.4 34.4 SW | 218 14.2 20.5 SW | 218 28.6 46.1 34.6
5/1/26 - 2245 35.0 24.2 100 34.9 35.0 SSW | 213 14.3 23.0 SW | 226 28.6 46.1 34.6
5/1/26 - 2230 35.0 24.9 99 34.8 35.0 SSW | 210 13.7 19.6 SW | 221 28.6 46.1 34.6
5/1/26 - 2215 35.3 25.6 100 35.2 35.3 SSW | 207 12.7 18.7 SSW | 196 28.6 46.1 34.6
5/1/26 - 2200 35.3 26.5 99 35.1 35.2 SSW | 211 10.1 15.9 SSW | 209 28.6 46.1 34.6
5/1/26 - 2145 35.4 27.6 100 35.3 35.4 SSW | 212 9.6 12.2 SSW | 212 28.6 46.1 34.6
5/1/26 - 2130 35.3 27.1 100 35.3 35.3 SSW | 212 10.1 13.0 SSW | 208 28.6 46.1 34.6
5/1/26 - 2115 35.5 27.6 100 35.5 35.5 SSW | 206 9.3 12.7 SSW | 207 28.6 46.1 34.6
5/1/26 - 2100 35.6 27.8 100 35.6 35.6 SSW | 207 8.8 12.6 SSW | 208 28.6 46.1 34.6
5/1/26 - 2045 35.5 27.5 100 35.5 35.5 SSW | 206 8.4 14.0 SSW | 202 28.6 46.1 34.6
5/1/26 - 2030 35.7 27.5 100 35.7 35.8 SSW | 206 9.9 14.0 SSW | 210 28.6 46.1 34.6
5/1/26 - 2015 35.4 26.2 100 35.4 35.4 SW | 214 11.2 16.8 SW | 224 28.6 46.1 34.6
5/1/26 - 2000 35.6 25.9 100 35.5 35.6 SSW | 211 11.4 20.6 SW | 215 28.6 46.1 34.6
5/1/26 - 1945 36.6 28.6 100 36.6 36.7 SSW | 198 9.0 15.0 SSW | 206 28.6 46.1 34.6
5/1/26 - 1930 36.6 29.0 100 36.6 36.7 SSW | 196 8.9 13.2 SSW | 199 28.6 46.1 34.6
5/1/26 - 1915 36.2 27.5 100 36.2 36.2 SSW | 203 10.3 16.6 SW | 225 28.6 46.1 34.6
5/1/26 - 1900 37.0 28.8 100 37.0 37.1 SSW | 204 8.5 16.8 SSW | 206 28.6 46.1 34.6
5/1/26 - 1845 36.4 26.6 100 36.3 36.4 SSW | 204 12.6 20.9 SSW | 204 28.6 46.1 34.6
5/1/26 - 1830 36.8 26.8 98 36.3 36.6 SSW | 213 14.2 21.7 SW | 222 28.6 46.1 34.6
5/1/26 - 1815 38.5 29.3 92 36.5 37.7 SSW | 202 10.7 23.3 SW | 219 28.6 46.1 34.6
5/1/26 - 1800 38.6 29.6 91 36.2 37.7 SW | 214 12.1 20.9 SW | 219 28.6 46.1 34.6
5/1/26 - 1745 39.2 30.6 85 35.0 37.5 SW | 217 12.1 19.3 SSW | 204 28.6 46.1 34.6
5/1/26 - 1730 39.3 31.0 80 33.7 37.0 SW | 217 9.9 20.3 SW | 219 28.6 46.1 34.6
5/1/26 - 1715 39.9 31.5 77 33.2 37.2 SW | 218 11.5 19.8 SSW | 213 28.6 46.1 34.6
5/1/26 - 1700 39.9 32.1 73 32.0 36.7 SW | 235 9.8 17.5 SW | 220 28.6 46.1 34.6
5/1/26 - 1645 40.3 32.6 71 31.4 36.7 SW | 232 10.1 17.5 SW | 221 28.6 46.1 34.6
5/1/26 - 1630 42.0 34.8 61 29.4 36.9 WSW | 242 8.5 19.2 SW | 224 28.6 46.1 34.6
5/1/26 - 1615 44.4 39.6 42 22.2 36.1 E | 86 2.4 14.9 SW | 220 28.6 46.1 34.6
5/1/26 - 1600 43.8 - 34 17.0 34.4 WSW | 251 0.2 0.9 W | 259 28.6 46.1 34.6
5/1/26 - 1545 43.2 - 37 18.4 34.4 ESE | 118 0.7 5.1 ENE | 58 28.6 46.0 34.6
5/1/26 - 1530 43.7 38.8 37 19.2 34.9 NE | 55 5.2 11.8 ENE | 67 28.6 45.7 34.6
5/1/26 - 1515 43.7 39.9 38 19.6 34.9 E | 101 2.8 9.9 ESE | 106 28.6 44.9 34.6
5/1/26 - 1500 41.9 35.8 41 19.7 34.0 E | 85 4.2 16.6 ENE | 59 28.6 44.8 34.6
5/1/26 - 1445 39.8 32.2 41 18.2 32.4 NE | 49 8.3 18.0 NE | 44 28.6 41.2 34.6
5/1/26 - 1430 39.2 32.4 43 18.7 32.2 NE | 54 6.8 14.4 NE | 56 28.6 40.2 34.6
5/1/26 - 1415 38.9 31.6 43 18.4 31.9 ENE | 66 7.9 15.4 NE | 48 28.6 39.3 34.6
5/1/26 - 1400 37.8 30.8 46 18.9 31.4 NE | 47 5.8 14.6 NE | 52 28.6 38.6 34.6
5/1/26 - 1345 37.8 30.4 45 18.5 31.3 NE | 39 7.1 15.4 ENE | 60 28.6 38.6 34.6
5/1/26 - 1330 37.4 27.9 46 18.7 31.1 NE | 37 10.2 23.9 NE | 51 28.6 38.6 34.6
5/1/26 - 1315 36.6 29.2 45 17.0 30.1 N | 10 8.0 12.8 N | 10 28.6 36.9 34.6
5/1/26 - 1300 36.1 27.0 49 18.8 30.3 NNE | 32 10.8 18.3 NE | 55 28.6 36.4 34.6
5/1/26 - 1245 35.5 25.9 51 19.4 30.1 NNE | 21 11.4 19.8 NNE | 24 28.6 36.2 34.6
5/1/26 - 1230 35.6 25.4 51 19.3 30.1 NE | 36 11.8 23.3 NE | 54 28.6 36.2 34.6
5/1/26 - 1215 35.2 25.6 52 19.4 29.9 NE | 46 9.9 20.6 NE | 55 28.6 35.9 34.6
5/1/26 - 1200 34.6 24.0 54 19.6 29.6 NE | 34 14.4 21.6 NNE | 28 28.6 35.0 34.6
Max 44.4 39.9 100 37.0 37.7 - 28.8 37.4 - 34.1 46.1 37.4
Avg 34.9 24.3 77 27.7 32.2 - 14.5 21.5 - - - -
Min 31.0 17.6 34 17.0 28.4 - 0.2 0.9 - 28.6 32.8 17.1